sensor_id;sensor_type;location;lat;lon;timestamp;temperature;humidity
30186;DHT22;31152;49.190;8.122;2023-04-04T00:00:50;2.50;99.90
30186;DHT22;31152;49.190;8.122;2023-04-04T00:03:17;2.50;99.90
30186;DHT22;31152;49.190;8.122;2023-04-04T00:05:44;2.50;99.90
30186;DHT22;31152;49.190;8.122;2023-04-04T00:08:11;2.50;99.90
30186;DHT22;31152;49.190;8.122;2023-04-04T00:10:40;2.50;99.90
30186;DHT22;31152;49.190;8.122;2023-04-04T00:13:08;2.40;99.90
30186;DHT22;31152;49.190;8.122;2023-04-04T00:15:37;2.40;99.90
30186;DHT22;31152;49.190;8.122;2023-04-04T00:18:04;2.40;99.90
30186;DHT22;31152;49.190;8.122;2023-04-04T00:20:30;2.40;99.90
30186;DHT22;31152;49.190;8.122;2023-04-04T00:22:57;2.40;99.90
30186;DHT22;31152;49.190;8.122;2023-04-04T00:25:24;2.40;99.90
30186;DHT22;31152;49.190;8.122;2023-04-04T00:27:51;2.30;99.90
30186;DHT22;31152;49.190;8.122;2023-04-04T00:30:17;2.30;99.90
30186;DHT22;31152;49.190;8.122;2023-04-04T00:32:44;2.30;99.90
30186;DHT22;31152;49.190;8.122;2023-04-04T00:35:11;2.30;99.90
30186;DHT22;31152;49.190;8.122;2023-04-04T00:37:40;2.30;99.90
30186;DHT22;31152;49.190;8.122;2023-04-04T00:40:08;2.30;99.90
30186;DHT22;31152;49.190;8.122;2023-04-04T00:42:35;2.20;99.90
30186;DHT22;31152;49.190;8.122;2023-04-04T00:45:04;2.20;99.90
30186;DHT22;31152;49.190;8.122;2023-04-04T00:47:32;2.20;99.90
30186;DHT22;31152;49.190;8.122;2023-04-04T00:50:00;2.20;99.90
30186;DHT22;31152;49.190;8.122;2023-04-04T00:52:29;2.10;99.90
30186;DHT22;31152;49.190;8.122;2023-04-04T00:54:56;2.10;99.90
30186;DHT22;31152;49.190;8.122;2023-04-04T00:57:27;2.10;99.90
30186;DHT22;31152;49.190;8.122;2023-04-04T00:59:56;2.10;99.90
30186;DHT22;31152;49.190;8.122;2023-04-04T01:02:23;2.10;99.90
30186;DHT22;31152;49.190;8.122;2023-04-04T01:04:50;2.10;99.90
30186;DHT22;31152;49.190;8.122;2023-04-04T01:07:18;2.10;99.90
30186;DHT22;31152;49.190;8.122;2023-04-04T01:09:44;2.00;99.90
30186;DHT22;31152;49.190;8.122;2023-04-04T01:12:12;2.00;99.90
30186;DHT22;31152;49.190;8.122;2023-04-04T01:14:41;2.00;99.90
30186;DHT22;31152;49.190;8.122;2023-04-04T01:17:07;2.00;99.90
30186;DHT22;31152;49.190;8.122;2023-04-04T01:19:42;2.00;99.90
30186;DHT22;31152;49.190;8.122;2023-04-04T01:22:10;1.90;99.90
30186;DHT22;31152;49.190;8.122;2023-04-04T01:24:38;1.90;99.90
30186;DHT22;31152;49.190;8.122;2023-04-04T01:27:07;1.90;99.90
30186;DHT22;31152;49.190;8.122;2023-04-04T01:29:34;1.90;99.90
30186;DHT22;31152;49.190;8.122;2023-04-04T01:32:09;1.90;99.90
30186;DHT22;31152;49.190;8.122;2023-04-04T01:37:22;1.80;99.90
30186;DHT22;31152;49.190;8.122;2023-04-04T01:39:58;1.80;99.90
30186;DHT22;31152;49.190;8.122;2023-04-04T01:42:31;1.80;99.90
30186;DHT22;31152;49.190;8.122;2023-04-04T01:44:58;1.80;99.90
30186;DHT22;31152;49.190;8.122;2023-04-04T01:47:27;1.80;99.90
30186;DHT22;31152;49.190;8.122;2023-04-04T01:49:54;1.80;99.90
30186;DHT22;31152;49.190;8.122;2023-04-04T01:52:21;1.80;99.90
30186;DHT22;31152;49.190;8.122;2023-04-04T01:54:48;1.70;99.90
30186;DHT22;31152;49.190;8.122;2023-04-04T01:57:14;1.70;99.90
30186;DHT22;31152;49.190;8.122;2023-04-04T01:59:41;1.70;99.90
30186;DHT22;31152;49.190;8.122;2023-04-04T02:02:08;1.70;99.90
30186;DHT22;31152;49.190;8.122;2023-04-04T02:04:34;1.70;99.90
30186;DHT22;31152;49.190;8.122;2023-04-04T02:07:01;1.60;99.90
30186;DHT22;31152;49.190;8.122;2023-04-04T02:09:28;1.60;99.90
30186;DHT22;31152;49.190;8.122;2023-04-04T02:11:54;1.60;99.90
30186;DHT22;31152;49.190;8.122;2023-04-04T02:14:23;1.50;99.90
30186;DHT22;31152;49.190;8.122;2023-04-04T02:16:52;1.50;99.90
30186;DHT22;31152;49.190;8.122;2023-04-04T02:19:22;1.50;99.90
30186;DHT22;31152;49.190;8.122;2023-04-04T02:21:52;1.50;99.90
30186;DHT22;31152;49.190;8.122;2023-04-04T02:24:18;1.40;99.90
30186;DHT22;31152;49.190;8.122;2023-04-04T02:26:45;1.40;99.90
30186;DHT22;31152;49.190;8.122;2023-04-04T02:29:14;1.40;99.90
30186;DHT22;31152;49.190;8.122;2023-04-04T02:31:42;1.40;99.90
30186;DHT22;31152;49.190;8.122;2023-04-04T02:34:09;1.40;99.90
30186;DHT22;31152;49.190;8.122;2023-04-04T02:36:35;1.40;99.90
30186;DHT22;31152;49.190;8.122;2023-04-04T02:39:02;1.40;99.90
30186;DHT22;31152;49.190;8.122;2023-04-04T02:41:31;1.30;99.90
30186;DHT22;31152;49.190;8.122;2023-04-04T02:44:00;1.30;99.90
30186;DHT22;31152;49.190;8.122;2023-04-04T02:46:26;1.30;99.90
30186;DHT22;31152;49.190;8.122;2023-04-04T02:48:53;1.20;99.90
30186;DHT22;31152;49.190;8.122;2023-04-04T02:51:20;1.20;99.90
30186;DHT22;31152;49.190;8.122;2023-04-04T02:53:46;1.20;99.90
30186;DHT22;31152;49.190;8.122;2023-04-04T02:56:13;1.20;99.90
30186;DHT22;31152;49.190;8.122;2023-04-04T02:58:40;1.10;99.90
30186;DHT22;31152;49.190;8.122;2023-04-04T03:01:08;1.10;99.90
30186;DHT22;31152;49.190;8.122;2023-04-04T03:03:35;1.10;99.90
30186;DHT22;31152;49.190;8.122;2023-04-04T03:06:02;1.10;99.90
30186;DHT22;31152;49.190;8.122;2023-04-04T03:08:29;1.10;99.90
30186;DHT22;31152;49.190;8.122;2023-04-04T03:10:55;1.10;99.90
30186;DHT22;31152;49.190;8.122;2023-04-04T03:13:22;1.00;99.90
30186;DHT22;31152;49.190;8.122;2023-04-04T03:15:49;1.00;99.90
30186;DHT22;31152;49.190;8.122;2023-04-04T03:18:20;1.00;99.90
30186;DHT22;31152;49.190;8.122;2023-04-04T03:20:47;1.00;99.90
30186;DHT22;31152;49.190;8.122;2023-04-04T03:23:16;1.00;99.90
30186;DHT22;31152;49.190;8.122;2023-04-04T03:25:43;1.00;99.90
30186;DHT22;31152;49.190;8.122;2023-04-04T03:28:12;0.90;99.90
30186;DHT22;31152;49.190;8.122;2023-04-04T03:30:39;0.90;99.90
30186;DHT22;31152;49.190;8.122;2023-04-04T03:33:06;0.90;99.90
30186;DHT22;31152;49.190;8.122;2023-04-04T03:35:42;0.90;99.90
30186;DHT22;31152;49.190;8.122;2023-04-04T03:38:11;0.80;99.90
30186;DHT22;31152;49.190;8.122;2023-04-04T03:40:38;0.80;99.90
30186;DHT22;31152;49.190;8.122;2023-04-04T03:43:08;0.80;99.90
30186;DHT22;31152;49.190;8.122;2023-04-04T03:45:36;0.80;99.90
30186;DHT22;31152;49.190;8.122;2023-04-04T03:48:05;0.70;99.90
30186;DHT22;31152;49.190;8.122;2023-04-04T03:50:32;0.70;99.90
30186;DHT22;31152;49.190;8.122;2023-04-04T03:53:00;0.70;99.90
30186;DHT22;31152;49.190;8.122;2023-04-04T03:55:29;0.70;99.90
30186;DHT22;31152;49.190;8.122;2023-04-04T03:57:56;0.70;99.90
30186;DHT22;31152;49.190;8.122;2023-04-04T04:00:24;0.70;99.90
30186;DHT22;31152;49.190;8.122;2023-04-04T04:02:51;0.60;99.90
30186;DHT22;31152;49.190;8.122;2023-04-04T04:05:18;0.60;99.90
30186;DHT22;31152;49.190;8.122;2023-04-04T04:07:47;0.60;99.90
30186;DHT22;31152;49.190;8.122;2023-04-04T04:10:14;0.60;99.90
30186;DHT22;31152;49.190;8.122;2023-04-04T04:12:40;0.60;99.90
30186;DHT22;31152;49.190;8.122;2023-04-04T04:15:07;0.50;99.90
30186;DHT22;31152;49.190;8.122;2023-04-04T04:17:38;0.60;99.90
30186;DHT22;31152;49.190;8.122;2023-04-04T04:20:08;0.50;99.90
30186;DHT22;31152;49.190;8.122;2023-04-04T04:22:35;0.50;99.90
30186;DHT22;31152;49.190;8.122;2023-04-04T04:25:07;0.50;99.90
30186;DHT22;31152;49.190;8.122;2023-04-04T04:27:35;0.50;99.90
30186;DHT22;31152;49.190;8.122;2023-04-04T04:30:01;0.50;99.90
30186;DHT22;31152;49.190;8.122;2023-04-04T04:32:29;0.50;99.90
30186;DHT22;31152;49.190;8.122;2023-04-04T04:34:55;0.40;99.90
30186;DHT22;31152;49.190;8.122;2023-04-04T04:37:25;0.50;99.90
30186;DHT22;31152;49.190;8.122;2023-04-04T04:39:52;0.50;99.90
30186;DHT22;31152;49.190;8.122;2023-04-04T04:42:21;0.40;99.90
30186;DHT22;31152;49.190;8.122;2023-04-04T04:44:48;0.40;99.90
30186;DHT22;31152;49.190;8.122;2023-04-04T04:47:14;0.40;99.90
30186;DHT22;31152;49.190;8.122;2023-04-04T04:49:41;0.40;99.90
30186;DHT22;31152;49.190;8.122;2023-04-04T04:52:10;0.40;99.90
30186;DHT22;31152;49.190;8.122;2023-04-04T04:54:36;0.40;99.90
30186;DHT22;31152;49.190;8.122;2023-04-04T04:57:03;0.40;99.90
30186;DHT22;31152;49.190;8.122;2023-04-04T04:59:30;0.40;99.90
30186;DHT22;31152;49.190;8.122;2023-04-04T05:01:57;0.40;99.90
30186;DHT22;31152;49.190;8.122;2023-04-04T05:04:25;0.40;99.90
30186;DHT22;31152;49.190;8.122;2023-04-04T05:06:52;0.40;99.90
30186;DHT22;31152;49.190;8.122;2023-04-04T05:09:21;0.40;99.90
30186;DHT22;31152;49.190;8.122;2023-04-04T05:11:51;0.40;99.90
30186;DHT22;31152;49.190;8.122;2023-04-04T05:14:18;0.40;99.90
30186;DHT22;31152;49.190;8.122;2023-04-04T05:16:45;0.40;99.90
30186;DHT22;31152;49.190;8.122;2023-04-04T05:19:14;0.40;99.90
30186;DHT22;31152;49.190;8.122;2023-04-04T05:21:41;0.40;99.90
30186;DHT22;31152;49.190;8.122;2023-04-04T05:24:11;0.40;99.90
30186;DHT22;31152;49.190;8.122;2023-04-04T05:26:40;0.40;99.90
30186;DHT22;31152;49.190;8.122;2023-04-04T05:29:07;0.40;99.90
30186;DHT22;31152;49.190;8.122;2023-04-04T05:31:34;0.40;99.90
30186;DHT22;31152;49.190;8.122;2023-04-04T05:34:05;0.50;99.90
30186;DHT22;31152;49.190;8.122;2023-04-04T05:36:35;0.50;99.90
30186;DHT22;31152;49.190;8.122;2023-04-04T05:39:03;0.50;99.90
30186;DHT22;31152;49.190;8.122;2023-04-04T05:41:32;0.60;99.90
30186;DHT22;31152;49.190;8.122;2023-04-04T05:44:01;0.60;99.90
30186;DHT22;31152;49.190;8.122;2023-04-04T05:46:31;0.70;99.90
30186;DHT22;31152;49.190;8.122;2023-04-04T05:48:58;0.70;99.90
30186;DHT22;31152;49.190;8.122;2023-04-04T05:51:25;0.80;99.90
30186;DHT22;31152;49.190;8.122;2023-04-04T05:53:51;0.80;99.90
30186;DHT22;31152;49.190;8.122;2023-04-04T05:56:18;0.90;99.90
30186;DHT22;31152;49.190;8.122;2023-04-04T05:58:45;1.00;99.90
30186;DHT22;31152;49.190;8.122;2023-04-04T06:01:12;1.10;99.90
30186;DHT22;31152;49.190;8.122;2023-04-04T06:03:39;1.20;99.90
30186;DHT22;31152;49.190;8.122;2023-04-04T06:06:06;1.30;99.90
30186;DHT22;31152;49.190;8.122;2023-04-04T06:08:33;1.40;99.90
30186;DHT22;31152;49.190;8.122;2023-04-04T06:11:18;1.50;99.90
30186;DHT22;31152;49.190;8.122;2023-04-04T06:13:45;1.60;99.90
30186;DHT22;31152;49.190;8.122;2023-04-04T06:16:12;1.70;99.90
30186;DHT22;31152;49.190;8.122;2023-04-04T06:18:41;1.80;99.90
30186;DHT22;31152;49.190;8.122;2023-04-04T06:21:08;1.90;99.90
30186;DHT22;31152;49.190;8.122;2023-04-04T06:23:34;2.00;99.90
30186;DHT22;31152;49.190;8.122;2023-04-04T06:26:03;2.10;99.90
30186;DHT22;31152;49.190;8.122;2023-04-04T06:28:30;2.20;99.90
30186;DHT22;31152;49.190;8.122;2023-04-04T06:30:57;2.30;99.90
30186;DHT22;31152;49.190;8.122;2023-04-04T06:33:24;2.40;99.90
30186;DHT22;31152;49.190;8.122;2023-04-04T06:35:51;2.50;99.90
30186;DHT22;31152;49.190;8.122;2023-04-04T06:38:17;2.60;99.90
30186;DHT22;31152;49.190;8.122;2023-04-04T06:40:44;2.80;99.90
30186;DHT22;31152;49.190;8.122;2023-04-04T06:43:14;2.90;99.90
30186;DHT22;31152;49.190;8.122;2023-04-04T06:45:40;3.00;99.90
30186;DHT22;31152;49.190;8.122;2023-04-04T06:48:08;3.10;99.90
30186;DHT22;31152;49.190;8.122;2023-04-04T06:50:35;3.20;99.90
30186;DHT22;31152;49.190;8.122;2023-04-04T06:53:02;3.30;99.90
30186;DHT22;31152;49.190;8.122;2023-04-04T06:55:29;3.40;99.90
30186;DHT22;31152;49.190;8.122;2023-04-04T06:57:55;3.50;99.90
30186;DHT22;31152;49.190;8.122;2023-04-04T07:00:22;3.60;99.90
30186;DHT22;31152;49.190;8.122;2023-04-04T07:02:55;3.70;99.90
30186;DHT22;31152;49.190;8.122;2023-04-04T07:05:24;3.80;99.80
30186;DHT22;31152;49.190;8.122;2023-04-04T07:07:54;3.90;99.60
30186;DHT22;31152;49.190;8.122;2023-04-04T07:10:25;4.00;99.80
30186;DHT22;31152;49.190;8.122;2023-04-04T07:12:52;4.10;99.40
30186;DHT22;31152;49.190;8.122;2023-04-04T07:15:19;4.20;99.50
30186;DHT22;31152;49.190;8.122;2023-04-04T07:17:48;4.30;98.80
30186;DHT22;31152;49.190;8.122;2023-04-04T07:20:17;4.50;98.70
30186;DHT22;31152;49.190;8.122;2023-04-04T07:22:44;4.60;98.70
30186;DHT22;31152;49.190;8.122;2023-04-04T07:25:11;4.70;98.10
30186;DHT22;31152;49.190;8.122;2023-04-04T07:27:39;4.80;97.50
30186;DHT22;31152;49.190;8.122;2023-04-04T07:30:11;4.90;97.30
30186;DHT22;31152;49.190;8.122;2023-04-04T07:32:41;5.00;97.00
30186;DHT22;31152;49.190;8.122;2023-04-04T07:35:10;5.20;96.40
30186;DHT22;31152;49.190;8.122;2023-04-04T07:37:38;5.20;95.80
30186;DHT22;31152;49.190;8.122;2023-04-04T07:40:08;5.40;96.10
30186;DHT22;31152;49.190;8.122;2023-04-04T07:42:42;5.50;95.40
30186;DHT22;31152;49.190;8.122;2023-04-04T07:45:11;5.60;94.90
30186;DHT22;31152;49.190;8.122;2023-04-04T07:47:44;5.70;95.20
30186;DHT22;31152;49.190;8.122;2023-04-04T07:50:12;5.90;94.60
30186;DHT22;31152;49.190;8.122;2023-04-04T07:52:40;6.00;94.40
30186;DHT22;31152;49.190;8.122;2023-04-04T07:55:07;6.10;94.00
30186;DHT22;31152;49.190;8.122;2023-04-04T07:57:38;6.20;94.10
30186;DHT22;31152;49.190;8.122;2023-04-04T08:00:06;6.30;93.50
30186;DHT22;31152;49.190;8.122;2023-04-04T08:02:36;6.40;93.80
30186;DHT22;31152;49.190;8.122;2023-04-04T08:05:03;6.40;93.30
30186;DHT22;31152;49.190;8.122;2023-04-04T08:07:35;6.50;92.60
30186;DHT22;31152;49.190;8.122;2023-04-04T08:10:02;6.60;92.20
30186;DHT22;31152;49.190;8.122;2023-04-04T08:12:29;6.80;92.70
30186;DHT22;31152;49.190;8.122;2023-04-04T08:14:56;6.90;91.60
30186;DHT22;31152;49.190;8.122;2023-04-04T08:17:22;7.10;91.00
30186;DHT22;31152;49.190;8.122;2023-04-04T08:19:50;7.20;91.00
30186;DHT22;31152;49.190;8.122;2023-04-04T08:22:17;7.30;89.90
30186;DHT22;31152;49.190;8.122;2023-04-04T08:24:44;7.40;89.50
30186;DHT22;31152;49.190;8.122;2023-04-04T08:27:11;7.60;89.70
30186;DHT22;31152;49.190;8.122;2023-04-04T08:29:40;7.80;89.20
30186;DHT22;31152;49.190;8.122;2023-04-04T08:32:10;7.90;88.00
30186;DHT22;31152;49.190;8.122;2023-04-04T08:34:38;8.00;85.00
30186;DHT22;31152;49.190;8.122;2023-04-04T08:37:06;8.10;83.70
30186;DHT22;31152;49.190;8.122;2023-04-04T08:39:32;8.20;82.00
30186;DHT22;31152;49.190;8.122;2023-04-04T08:42:04;8.30;79.40
30186;DHT22;31152;49.190;8.122;2023-04-04T08:44:34;8.40;77.40
30186;DHT22;31152;49.190;8.122;2023-04-04T08:47:03;8.50;77.00
30186;DHT22;31152;49.190;8.122;2023-04-04T08:49:41;8.60;77.50
30186;DHT22;31152;49.190;8.122;2023-04-04T08:52:11;8.80;76.30
30186;DHT22;31152;49.190;8.122;2023-04-04T08:54:41;9.00;71.20
30186;DHT22;31152;49.190;8.122;2023-04-04T08:57:11;9.10;68.60
30186;DHT22;31152;49.190;8.122;2023-04-04T08:59:40;9.20;68.10
30186;DHT22;31152;49.190;8.122;2023-04-04T09:04:41;9.40;68.00
30186;DHT22;31152;49.190;8.122;2023-04-04T09:07:17;9.50;65.90
30186;DHT22;31152;49.190;8.122;2023-04-04T09:09:46;9.60;64.90
30186;DHT22;31152;49.190;8.122;2023-04-04T09:12:16;9.60;63.50
30186;DHT22;31152;49.190;8.122;2023-04-04T09:14:43;9.70;63.50
30186;DHT22;31152;49.190;8.122;2023-04-04T09:17:11;9.80;63.70
30186;DHT22;31152;49.190;8.122;2023-04-04T09:19:41;9.80;63.30
30186;DHT22;31152;49.190;8.122;2023-04-04T09:22:08;9.90;62.30
30186;DHT22;31152;49.190;8.122;2023-04-04T09:24:44;10.10;61.70
30186;DHT22;31152;49.190;8.122;2023-04-04T09:27:11;10.20;61.80
30186;DHT22;31152;49.190;8.122;2023-04-04T09:29:39;10.30;62.90
30186;DHT22;31152;49.190;8.122;2023-04-04T09:32:13;10.40;61.50
30186;DHT22;31152;49.190;8.122;2023-04-04T09:34:40;10.60;60.60
30186;DHT22;31152;49.190;8.122;2023-04-04T09:37:07;10.80;60.90
30186;DHT22;31152;49.190;8.122;2023-04-04T09:39:38;10.90;60.10
30186;DHT22;31152;49.190;8.122;2023-04-04T09:42:05;11.00;59.50
30186;DHT22;31152;49.190;8.122;2023-04-04T09:44:35;11.20;57.50
30186;DHT22;31152;49.190;8.122;2023-04-04T09:47:25;11.30;57.80
30186;DHT22;31152;49.190;8.122;2023-04-04T09:49:58;11.30;58.00
30186;DHT22;31152;49.190;8.122;2023-04-04T09:52:26;11.40;58.70
30186;DHT22;31152;49.190;8.122;2023-04-04T09:55:00;11.50;58.20
30186;DHT22;31152;49.190;8.122;2023-04-04T09:57:29;11.50;57.30
30186;DHT22;31152;49.190;8.122;2023-04-04T10:00:00;11.30;58.50
30186;DHT22;31152;49.190;8.122;2023-04-04T10:02:29;11.30;57.80
30186;DHT22;31152;49.190;8.122;2023-04-04T10:04:56;11.40;57.80
30186;DHT22;31152;49.190;8.122;2023-04-04T10:07:32;11.50;58.50
30186;DHT22;31152;49.190;8.122;2023-04-04T10:10:06;11.70;57.60
30186;DHT22;31152;49.190;8.122;2023-04-04T10:12:35;11.90;56.90
30186;DHT22;31152;49.190;8.122;2023-04-04T10:15:06;11.90;57.50
30186;DHT22;31152;49.190;8.122;2023-04-04T10:17:38;12.00;56.90
30186;DHT22;31152;49.190;8.122;2023-04-04T10:20:09;12.20;56.00
30186;DHT22;31152;49.190;8.122;2023-04-04T10:22:36;12.20;54.90
30186;DHT22;31152;49.190;8.122;2023-04-04T10:25:04;12.20;54.20
30186;DHT22;31152;49.190;8.122;2023-04-04T10:27:32;12.10;54.50
30186;DHT22;31152;49.190;8.122;2023-04-04T10:29:59;11.70;53.80
30186;DHT22;31152;49.190;8.122;2023-04-04T10:33:05;11.50;56.30
30186;DHT22;31152;49.190;8.122;2023-04-04T10:35:35;11.60;55.70
30186;DHT22;31152;49.190;8.122;2023-04-04T10:38:03;11.70;56.20
30186;DHT22;31152;49.190;8.122;2023-04-04T10:40:37;12.00;56.10
30186;DHT22;31152;49.190;8.122;2023-04-04T10:43:05;12.20;55.10
30186;DHT22;31152;49.190;8.122;2023-04-04T10:45:37;12.40;55.80
30186;DHT22;31152;49.190;8.122;2023-04-04T10:48:08;12.60;54.30
30186;DHT22;31152;49.190;8.122;2023-04-04T10:50:36;12.80;53.70
30186;DHT22;31152;49.190;8.122;2023-04-04T10:53:05;13.00;53.30
30186;DHT22;31152;49.190;8.122;2023-04-04T10:55:35;13.10;53.10
30186;DHT22;31152;49.190;8.122;2023-04-04T10:58:05;13.10;52.30
30186;DHT22;31152;49.190;8.122;2023-04-04T11:00:48;13.10;53.50
30186;DHT22;31152;49.190;8.122;2023-04-04T11:03:17;13.00;52.70
30186;DHT22;31152;49.190;8.122;2023-04-04T11:05:44;13.00;54.80
30186;DHT22;31152;49.190;8.122;2023-04-04T11:08:16;13.30;55.30
30186;DHT22;31152;49.190;8.122;2023-04-04T11:10:47;13.50;52.80
30186;DHT22;31152;49.190;8.122;2023-04-04T11:13:31;13.90;52.10
30186;DHT22;31152;49.190;8.122;2023-04-04T11:16:32;14.20;51.10
30186;DHT22;31152;49.190;8.122;2023-04-04T11:18:58;14.40;49.90
30186;DHT22;31152;49.190;8.122;2023-04-04T11:21:31;14.50;48.90
30186;DHT22;31152;49.190;8.122;2023-04-04T11:29:01;14.70;47.60
30186;DHT22;31152;49.190;8.122;2023-04-04T11:31:43;14.70;47.90
30186;DHT22;31152;49.190;8.122;2023-04-04T11:34:31;14.80;48.10
30186;DHT22;31152;49.190;8.122;2023-04-04T11:37:14;14.50;48.60
30186;DHT22;31152;49.190;8.122;2023-04-04T11:39:49;14.50;48.20
30186;DHT22;31152;49.190;8.122;2023-04-04T11:42:22;14.50;48.30
30186;DHT22;31152;49.190;8.122;2023-04-04T11:45:00;14.60;49.00
30186;DHT22;31152;49.190;8.122;2023-04-04T11:47:29;14.70;49.00
30186;DHT22;31152;49.190;8.122;2023-04-04T11:49:59;14.90;49.50
30186;DHT22;31152;49.190;8.122;2023-04-04T11:52:33;15.10;47.80
30186;DHT22;31152;49.190;8.122;2023-04-04T11:55:19;14.70;47.00
30186;DHT22;31152;49.190;8.122;2023-04-04T11:57:47;14.90;48.60
30186;DHT22;31152;49.190;8.122;2023-04-04T12:00:28;15.10;47.10
30186;DHT22;31152;49.190;8.122;2023-04-04T12:02:56;15.20;47.60
30186;DHT22;31152;49.190;8.122;2023-04-04T12:05:23;15.40;47.30
30186;DHT22;31152;49.190;8.122;2023-04-04T12:07:52;15.40;46.70
30186;DHT22;31152;49.190;8.122;2023-04-04T12:10:21;15.50;46.30
30186;DHT22;31152;49.190;8.122;2023-04-04T12:12:54;15.50;45.70
30186;DHT22;31152;49.190;8.122;2023-04-04T12:15:26;15.60;45.80
30186;DHT22;31152;49.190;8.122;2023-04-04T12:17:55;15.40;45.60
30186;DHT22;31152;49.190;8.122;2023-04-04T12:20:22;15.60;47.20
30186;DHT22;31152;49.190;8.122;2023-04-04T12:22:52;15.80;46.90
30186;DHT22;31152;49.190;8.122;2023-04-04T12:25:24;15.70;46.00
30186;DHT22;31152;49.190;8.122;2023-04-04T12:27:52;15.80;45.90
30186;DHT22;31152;49.190;8.122;2023-04-04T12:30:20;15.90;46.30
30186;DHT22;31152;49.190;8.122;2023-04-04T12:32:48;15.90;45.00
30186;DHT22;31152;49.190;8.122;2023-04-04T12:35:15;16.00;45.40
30186;DHT22;31152;49.190;8.122;2023-04-04T12:38:04;16.10;45.30
30186;DHT22;31152;49.190;8.122;2023-04-04T12:40:37;16.20;45.30
30186;DHT22;31152;49.190;8.122;2023-04-04T12:43:06;16.30;43.90
30186;DHT22;31152;49.190;8.122;2023-04-04T12:45:40;16.30;44.20
30186;DHT22;31152;49.190;8.122;2023-04-04T12:48:12;16.40;44.70
30186;DHT22;31152;49.190;8.122;2023-04-04T12:50:59;16.30;43.70
30186;DHT22;31152;49.190;8.122;2023-04-04T12:53:27;16.30;44.30
30186;DHT22;31152;49.190;8.122;2023-04-04T12:56:00;16.40;44.70
30186;DHT22;31152;49.190;8.122;2023-04-04T12:58:28;16.50;43.90
30186;DHT22;31152;49.190;8.122;2023-04-04T13:00:58;16.50;45.30
30186;DHT22;31152;49.190;8.122;2023-04-04T13:03:26;16.50;44.20
30186;DHT22;31152;49.190;8.122;2023-04-04T13:05:56;16.50;43.90
30186;DHT22;31152;49.190;8.122;2023-04-04T13:08:23;16.50;44.50
30186;DHT22;31152;49.190;8.122;2023-04-04T13:11:00;16.60;43.30
30186;DHT22;31152;49.190;8.122;2023-04-04T13:16:00;16.60;42.80
30186;DHT22;31152;49.190;8.122;2023-04-04T13:18:35;16.50;43.00
30186;DHT22;31152;49.190;8.122;2023-04-04T13:21:06;16.50;42.90
30186;DHT22;31152;49.190;8.122;2023-04-04T13:23:35;16.40;43.40
30186;DHT22;31152;49.190;8.122;2023-04-04T13:26:05;16.30;43.30
30186;DHT22;31152;49.190;8.122;2023-04-04T13:28:34;16.30;43.60
30186;DHT22;31152;49.190;8.122;2023-04-04T13:31:05;16.40;43.20
30186;DHT22;31152;49.190;8.122;2023-04-04T13:33:37;16.40;43.60
30186;DHT22;31152;49.190;8.122;2023-04-04T13:36:05;16.30;44.40
30186;DHT22;31152;49.190;8.122;2023-04-04T13:38:34;16.20;43.60
30186;DHT22;31152;49.190;8.122;2023-04-04T13:41:00;16.20;43.40
30186;DHT22;31152;49.190;8.122;2023-04-04T13:43:27;16.20;44.00
30186;DHT22;31152;49.190;8.122;2023-04-04T13:45:54;16.30;43.60
30186;DHT22;31152;49.190;8.122;2023-04-04T13:48:22;16.20;43.90
30186;DHT22;31152;49.190;8.122;2023-04-04T13:50:51;15.80;43.20
30186;DHT22;31152;49.190;8.122;2023-04-04T13:53:19;15.10;42.80
30186;DHT22;31152;49.190;8.122;2023-04-04T13:55:46;14.50;44.80
30186;DHT22;31152;49.190;8.122;2023-04-04T13:58:16;14.70;46.50
30186;DHT22;31152;49.190;8.122;2023-04-04T14:00:47;14.80;46.00
30186;DHT22;31152;49.190;8.122;2023-04-04T14:03:14;15.00;46.00
30186;DHT22;31152;49.190;8.122;2023-04-04T14:05:42;15.30;46.30
30186;DHT22;31152;49.190;8.122;2023-04-04T14:08:11;15.50;44.70
30186;DHT22;31152;49.190;8.122;2023-04-04T14:10:38;15.60;44.10
30186;DHT22;31152;49.190;8.122;2023-04-04T14:13:05;15.60;44.70
30186;DHT22;31152;49.190;8.122;2023-04-04T14:15:31;15.60;44.30
30186;DHT22;31152;49.190;8.122;2023-04-04T14:18:03;15.30;43.40
30186;DHT22;31152;49.190;8.122;2023-04-04T14:20:30;15.00;44.30
30186;DHT22;31152;49.190;8.122;2023-04-04T14:22:58;15.20;45.30
30186;DHT22;31152;49.190;8.122;2023-04-04T14:25:25;15.40;44.50
30186;DHT22;31152;49.190;8.122;2023-04-04T14:27:54;15.50;45.00
30186;DHT22;31152;49.190;8.122;2023-04-04T14:30:21;15.60;45.10
30186;DHT22;31152;49.190;8.122;2023-04-04T14:32:47;15.80;43.80
30186;DHT22;31152;49.190;8.122;2023-04-04T14:35:17;15.80;43.90
30186;DHT22;31152;49.190;8.122;2023-04-04T14:37:44;15.50;44.30
30186;DHT22;31152;49.190;8.122;2023-04-04T14:40:11;15.50;44.50
30186;DHT22;31152;49.190;8.122;2023-04-04T14:42:38;15.50;44.20
30186;DHT22;31152;49.190;8.122;2023-04-04T14:45:05;15.40;44.30
30186;DHT22;31152;49.190;8.122;2023-04-04T14:47:33;15.40;43.70
30186;DHT22;31152;49.190;8.122;2023-04-04T14:50:00;15.40;44.50
30186;DHT22;31152;49.190;8.122;2023-04-04T14:52:27;15.40;43.90
30186;DHT22;31152;49.190;8.122;2023-04-04T14:54:57;15.40;43.30
30186;DHT22;31152;49.190;8.122;2023-04-04T14:57:24;15.30;44.30
30186;DHT22;31152;49.190;8.122;2023-04-04T14:59:51;15.40;44.50
30186;DHT22;31152;49.190;8.122;2023-04-04T15:02:17;15.00;44.00
30186;DHT22;31152;49.190;8.122;2023-04-04T15:04:44;15.00;45.30
30186;DHT22;31152;49.190;8.122;2023-04-04T15:07:12;15.00;44.80
30186;DHT22;31152;49.190;8.122;2023-04-04T15:09:39;15.00;45.30
30186;DHT22;31152;49.190;8.122;2023-04-04T15:12:08;15.10;45.60
30186;DHT22;31152;49.190;8.122;2023-04-04T15:14:35;15.20;45.60
30186;DHT22;31152;49.190;8.122;2023-04-04T15:17:02;15.30;45.20
30186;DHT22;31152;49.190;8.122;2023-04-04T15:19:29;15.30;43.90
30186;DHT22;31152;49.190;8.122;2023-04-04T15:21:56;15.30;44.10
30186;DHT22;31152;49.190;8.122;2023-04-04T15:24:23;15.30;44.10
30186;DHT22;31152;49.190;8.122;2023-04-04T15:26:50;15.30;44.80
30186;DHT22;31152;49.190;8.122;2023-04-04T15:29:17;15.40;46.20
30186;DHT22;31152;49.190;8.122;2023-04-04T15:31:44;15.50;45.10
30186;DHT22;31152;49.190;8.122;2023-04-04T15:34:14;15.60;44.80
30186;DHT22;31152;49.190;8.122;2023-04-04T15:36:44;15.70;45.00
30186;DHT22;31152;49.190;8.122;2023-04-04T15:39:11;15.80;44.60
30186;DHT22;31152;49.190;8.122;2023-04-04T15:41:38;15.90;44.00
30186;DHT22;31152;49.190;8.122;2023-04-04T15:44:05;16.30;44.60
30186;DHT22;31152;49.190;8.122;2023-04-04T15:46:32;16.80;42.80
30186;DHT22;31152;49.190;8.122;2023-04-04T15:48:59;17.50;42.50
30186;DHT22;31152;49.190;8.122;2023-04-04T15:51:26;18.10;41.30
30186;DHT22;31152;49.190;8.122;2023-04-04T15:53:55;18.90;40.80
30186;DHT22;31152;49.190;8.122;2023-04-04T15:56:22;19.60;39.40
30186;DHT22;31152;49.190;8.122;2023-04-04T15:58:49;20.10;38.30
30186;DHT22;31152;49.190;8.122;2023-04-04T16:01:16;19.90;36.50
30186;DHT22;31152;49.190;8.122;2023-04-04T16:03:43;20.60;37.40